sensor_id;sensor_type;location;lat;lon;timestamp;temperature;humidity
18085;DHT22;9169;44.492;11.372;2023-04-25T00:01:40;19.20;42.20
18085;DHT22;9169;44.492;11.372;2023-04-25T00:04:08;19.20;42.20
18085;DHT22;9169;44.492;11.372;2023-04-25T00:06:39;19.20;42.20
18085;DHT22;9169;44.492;11.372;2023-04-25T00:09:07;19.20;42.20
18085;DHT22;9169;44.492;11.372;2023-04-25T00:11:38;19.20;42.20
18085;DHT22;9169;44.492;11.372;2023-04-25T00:14:07;19.20;42.30
18085;DHT22;9169;44.492;11.372;2023-04-25T00:16:35;19.20;42.30
18085;DHT22;9169;44.492;11.372;2023-04-25T00:19:05;19.20;42.50
18085;DHT22;9169;44.492;11.372;2023-04-25T00:21:34;19.20;42.60
18085;DHT22;9169;44.492;11.372;2023-04-25T00:24:05;19.10;42.50
18085;DHT22;9169;44.492;11.372;2023-04-25T00:26:34;19.10;42.60
18085;DHT22;9169;44.492;11.372;2023-04-25T00:29:03;19.10;42.60
18085;DHT22;9169;44.492;11.372;2023-04-25T00:31:31;19.10;42.50
18085;DHT22;9169;44.492;11.372;2023-04-25T00:34:00;19.10;42.70
18085;DHT22;9169;44.492;11.372;2023-04-25T00:36:30;18.90;43.00
18085;DHT22;9169;44.492;11.372;2023-04-25T00:38:59;18.80;43.20
18085;DHT22;9169;44.492;11.372;2023-04-25T00:41:28;18.60;43.40
18085;DHT22;9169;44.492;11.372;2023-04-25T00:43:58;18.50;43.90
18085;DHT22;9169;44.492;11.372;2023-04-25T00:46:27;18.30;43.80
18085;DHT22;9169;44.492;11.372;2023-04-25T00:48:56;18.30;44.00
18085;DHT22;9169;44.492;11.372;2023-04-25T00:51:25;18.20;43.90
18085;DHT22;9169;44.492;11.372;2023-04-25T00:53:56;18.30;44.00
18085;DHT22;9169;44.492;11.372;2023-04-25T00:56:25;18.30;44.00
18085;DHT22;9169;44.492;11.372;2023-04-25T00:58:54;18.30;44.00
18085;DHT22;9169;44.492;11.372;2023-04-25T01:01:23;18.30;44.00
18085;DHT22;9169;44.492;11.372;2023-04-25T01:03:53;18.30;43.90
18085;DHT22;9169;44.492;11.372;2023-04-25T01:06:22;18.30;43.80
18085;DHT22;9169;44.492;11.372;2023-04-25T01:08:51;18.30;43.90
18085;DHT22;9169;44.492;11.372;2023-04-25T01:11:22;18.30;44.00
18085;DHT22;9169;44.492;11.372;2023-04-25T01:13:51;18.30;44.00
18085;DHT22;9169;44.492;11.372;2023-04-25T01:16:19;18.30;44.10
18085;DHT22;9169;44.492;11.372;2023-04-25T01:18:51;18.30;44.60
18085;DHT22;9169;44.492;11.372;2023-04-25T01:21:21;18.30;44.30
18085;DHT22;9169;44.492;11.372;2023-04-25T01:23:50;18.30;44.20
18085;DHT22;9169;44.492;11.372;2023-04-25T01:26:19;18.20;44.10
18085;DHT22;9169;44.492;11.372;2023-04-25T01:28:50;18.20;44.30
18085;DHT22;9169;44.492;11.372;2023-04-25T01:31:19;18.20;44.30
18085;DHT22;9169;44.492;11.372;2023-04-25T01:33:48;18.20;44.30
18085;DHT22;9169;44.492;11.372;2023-04-25T01:36:18;18.20;44.20
18085;DHT22;9169;44.492;11.372;2023-04-25T01:38:48;18.10;44.40
18085;DHT22;9169;44.492;11.372;2023-04-25T01:41:16;18.10;44.40
18085;DHT22;9169;44.492;11.372;2023-04-25T01:43:45;18.00;44.50
18085;DHT22;9169;44.492;11.372;2023-04-25T01:46:14;18.00;44.70
18085;DHT22;9169;44.492;11.372;2023-04-25T01:48:43;17.90;44.60
18085;DHT22;9169;44.492;11.372;2023-04-25T01:51:12;18.00;45.00
18085;DHT22;9169;44.492;11.372;2023-04-25T01:53:41;17.90;45.10
18085;DHT22;9169;44.492;11.372;2023-04-25T01:56:12;17.80;45.20
18085;DHT22;9169;44.492;11.372;2023-04-25T01:58:41;17.70;45.20
18085;DHT22;9169;44.492;11.372;2023-04-25T02:01:30;17.70;45.10
18085;DHT22;9169;44.492;11.372;2023-04-25T02:04:19;17.70;45.10
18085;DHT22;9169;44.492;11.372;2023-04-25T02:06:48;17.70;45.30
18085;DHT22;9169;44.492;11.372;2023-04-25T02:09:17;17.70;45.30
18085;DHT22;9169;44.492;11.372;2023-04-25T02:11:53;17.70;45.10
18085;DHT22;9169;44.492;11.372;2023-04-25T02:14:44;17.70;45.20
18085;DHT22;9169;44.492;11.372;2023-04-25T02:17:23;17.60;45.40
18085;DHT22;9169;44.492;11.372;2023-04-25T02:19:53;17.60;45.50
18085;DHT22;9169;44.492;11.372;2023-04-25T02:22:23;17.50;45.60
18085;DHT22;9169;44.492;11.372;2023-04-25T02:24:53;17.50;45.40
18085;DHT22;9169;44.492;11.372;2023-04-25T02:27:23;17.50;45.60
18085;DHT22;9169;44.492;11.372;2023-04-25T02:29:52;17.50;45.70
18085;DHT22;9169;44.492;11.372;2023-04-25T02:32:21;17.50;45.60
18085;DHT22;9169;44.492;11.372;2023-04-25T02:34:49;17.50;45.70
18085;DHT22;9169;44.492;11.372;2023-04-25T02:37:18;17.50;45.90
18085;DHT22;9169;44.492;11.372;2023-04-25T02:39:46;17.50;45.90
18085;DHT22;9169;44.492;11.372;2023-04-25T02:42:15;17.40;45.90
18085;DHT22;9169;44.492;11.372;2023-04-25T02:44:45;17.40;46.00
18085;DHT22;9169;44.492;11.372;2023-04-25T02:47:14;17.40;46.00
18085;DHT22;9169;44.492;11.372;2023-04-25T02:49:43;17.40;45.90
18085;DHT22;9169;44.492;11.372;2023-04-25T02:52:12;17.40;45.90
18085;DHT22;9169;44.492;11.372;2023-04-25T02:54:42;17.30;45.90
18085;DHT22;9169;44.492;11.372;2023-04-25T02:57:11;17.30;46.10
18085;DHT22;9169;44.492;11.372;2023-04-25T02:59:39;17.20;46.10
18085;DHT22;9169;44.492;11.372;2023-04-25T03:02:10;17.20;46.10
18085;DHT22;9169;44.492;11.372;2023-04-25T03:04:38;17.20;46.30
18085;DHT22;9169;44.492;11.372;2023-04-25T03:07:08;17.20;46.40
18085;DHT22;9169;44.492;11.372;2023-04-25T03:09:36;17.10;46.50
18085;DHT22;9169;44.492;11.372;2023-04-25T03:12:05;17.10;46.60
18085;DHT22;9169;44.492;11.372;2023-04-25T03:14:34;17.00;46.60
18085;DHT22;9169;44.492;11.372;2023-04-25T03:17:04;16.90;46.80
18085;DHT22;9169;44.492;11.372;2023-04-25T03:19:36;16.90;46.90
18085;DHT22;9169;44.492;11.372;2023-04-25T03:22:05;16.80;46.90
18085;DHT22;9169;44.492;11.372;2023-04-25T03:24:34;16.80;46.80
18085;DHT22;9169;44.492;11.372;2023-04-25T03:27:04;16.80;46.90
18085;DHT22;9169;44.492;11.372;2023-04-25T03:29:33;16.90;46.80
18085;DHT22;9169;44.492;11.372;2023-04-25T03:32:04;16.90;46.70
18085;DHT22;9169;44.492;11.372;2023-04-25T03:34:33;16.90;47.00
18085;DHT22;9169;44.492;11.372;2023-04-25T03:37:03;16.70;46.70
18085;DHT22;9169;44.492;11.372;2023-04-25T03:39:36;16.90;46.90
18085;DHT22;9169;44.492;11.372;2023-04-25T03:42:06;16.90;46.70
18085;DHT22;9169;44.492;11.372;2023-04-25T03:44:35;16.90;46.70
18085;DHT22;9169;44.492;11.372;2023-04-25T03:47:04;16.90;46.80
18085;DHT22;9169;44.492;11.372;2023-04-25T03:49:34;16.90;46.70
18085;DHT22;9169;44.492;11.372;2023-04-25T03:52:06;16.90;46.80
18085;DHT22;9169;44.492;11.372;2023-04-25T03:54:38;16.90;46.80
18085;DHT22;9169;44.492;11.372;2023-04-25T03:57:16;16.90;46.90
18085;DHT22;9169;44.492;11.372;2023-04-25T03:59:45;16.80;47.00
18085;DHT22;9169;44.492;11.372;2023-04-25T04:02:15;16.70;47.00
18085;DHT22;9169;44.492;11.372;2023-04-25T04:04:44;16.70;47.40
18085;DHT22;9169;44.492;11.372;2023-04-25T04:07:15;16.70;47.40
18085;DHT22;9169;44.492;11.372;2023-04-25T04:09:46;16.70;47.40
18085;DHT22;9169;44.492;11.372;2023-04-25T04:12:23;16.70;47.30
18085;DHT22;9169;44.492;11.372;2023-04-25T04:14:52;16.70;47.10
18085;DHT22;9169;44.492;11.372;2023-04-25T04:17:21;16.70;47.10
18085;DHT22;9169;44.492;11.372;2023-04-25T04:19:51;16.70;47.20
18085;DHT22;9169;44.492;11.372;2023-04-25T04:22:22;16.80;47.30
18085;DHT22;9169;44.492;11.372;2023-04-25T04:24:53;16.80;47.30
18085;DHT22;9169;44.492;11.372;2023-04-25T04:27:42;16.80;47.30
18085;DHT22;9169;44.492;11.372;2023-04-25T04:30:27;16.80;47.40
18085;DHT22;9169;44.492;11.372;2023-04-25T04:32:58;16.80;47.40
18085;DHT22;9169;44.492;11.372;2023-04-25T04:35:28;16.80;47.40
18085;DHT22;9169;44.492;11.372;2023-04-25T04:37:59;16.80;47.60
18085;DHT22;9169;44.492;11.372;2023-04-25T04:40:33;16.80;47.50
18085;DHT22;9169;44.492;11.372;2023-04-25T04:43:08;16.80;47.40
18085;DHT22;9169;44.492;11.372;2023-04-25T04:45:55;16.80;47.60
18085;DHT22;9169;44.492;11.372;2023-04-25T04:48:43;16.80;47.40
18085;DHT22;9169;44.492;11.372;2023-04-25T04:51:29;16.80;47.20
18085;DHT22;9169;44.492;11.372;2023-04-25T04:54:22;16.90;47.20
18085;DHT22;9169;44.492;11.372;2023-04-25T04:57:10;16.90;47.20
18085;DHT22;9169;44.492;11.372;2023-04-25T05:00:15;16.90;47.20
18085;DHT22;9169;44.492;11.372;2023-04-25T05:03:09;16.90;47.10
18085;DHT22;9169;44.492;11.372;2023-04-25T05:06:05;17.00;47.20
18085;DHT22;9169;44.492;11.372;2023-04-25T05:08:44;17.00;47.20
18085;DHT22;9169;44.492;11.372;2023-04-25T05:11:34;17.00;47.10
18085;DHT22;9169;44.492;11.372;2023-04-25T05:14:13;17.00;47.30
18085;DHT22;9169;44.492;11.372;2023-04-25T05:17:08;17.10;47.30
18085;DHT22;9169;44.492;11.372;2023-04-25T05:19:55;17.10;47.20
18085;DHT22;9169;44.492;11.372;2023-04-25T05:22:50;17.20;47.30
18085;DHT22;9169;44.492;11.372;2023-04-25T05:25:39;17.20;47.20
18085;DHT22;9169;44.492;11.372;2023-04-25T05:28:17;17.30;47.10
18085;DHT22;9169;44.492;11.372;2023-04-25T05:31:18;17.30;47.30
18085;DHT22;9169;44.492;11.372;2023-04-25T05:33:52;17.40;47.20
18085;DHT22;9169;44.492;11.372;2023-04-25T05:36:21;17.40;47.20
18085;DHT22;9169;44.492;11.372;2023-04-25T05:38:50;17.50;47.10
18085;DHT22;9169;44.492;11.372;2023-04-25T05:41:21;17.50;47.00
18085;DHT22;9169;44.492;11.372;2023-04-25T05:44:13;17.50;47.10
18085;DHT22;9169;44.492;11.372;2023-04-25T05:46:58;17.60;47.10
18085;DHT22;9169;44.492;11.372;2023-04-25T05:49:50;17.60;46.90
18085;DHT22;9169;44.492;11.372;2023-04-25T05:52:29;17.70;46.80
18085;DHT22;9169;44.492;11.372;2023-04-25T05:55:08;17.70;46.70
18085;DHT22;9169;44.492;11.372;2023-04-25T05:57:37;17.70;46.60
18085;DHT22;9169;44.492;11.372;2023-04-25T06:00:13;17.80;46.60
18085;DHT22;9169;44.492;11.372;2023-04-25T06:02:48;17.80;46.40
18085;DHT22;9169;44.492;11.372;2023-04-25T06:05:18;17.80;46.10
18085;DHT22;9169;44.492;11.372;2023-04-25T06:07:47;17.90;46.10
18085;DHT22;9169;44.492;11.372;2023-04-25T06:10:16;17.90;46.10
18085;DHT22;9169;44.492;11.372;2023-04-25T06:12:45;18.00;46.20
18085;DHT22;9169;44.492;11.372;2023-04-25T06:15:17;18.00;46.10
18085;DHT22;9169;44.492;11.372;2023-04-25T06:17:49;18.00;46.00
18085;DHT22;9169;44.492;11.372;2023-04-25T06:20:18;18.10;46.00
18085;DHT22;9169;44.492;11.372;2023-04-25T06:22:51;18.10;46.00
18085;DHT22;9169;44.492;11.372;2023-04-25T06:25:25;18.10;45.90
18085;DHT22;9169;44.492;11.372;2023-04-25T06:27:55;18.10;45.90
18085;DHT22;9169;44.492;11.372;2023-04-25T06:30:25;18.20;45.90
18085;DHT22;9169;44.492;11.372;2023-04-25T06:32:59;18.20;45.90
18085;DHT22;9169;44.492;11.372;2023-04-25T06:35:29;18.20;45.90
18085;DHT22;9169;44.492;11.372;2023-04-25T06:37:58;18.30;45.80
18085;DHT22;9169;44.492;11.372;2023-04-25T06:40:27;18.30;45.70
18085;DHT22;9169;44.492;11.372;2023-04-25T06:42:59;18.30;45.60
18085;DHT22;9169;44.492;11.372;2023-04-25T06:45:52;18.30;45.60
18085;DHT22;9169;44.492;11.372;2023-04-25T06:48:23;18.30;45.60
18085;DHT22;9169;44.492;11.372;2023-04-25T06:50:53;18.30;45.50
18085;DHT22;9169;44.492;11.372;2023-04-25T06:53:23;18.30;45.40
18085;DHT22;9169;44.492;11.372;2023-04-25T06:55:58;18.30;45.50
18085;DHT22;9169;44.492;11.372;2023-04-25T06:58:37;18.30;45.40
18085;DHT22;9169;44.492;11.372;2023-04-25T07:01:36;18.30;45.40
18085;DHT22;9169;44.492;11.372;2023-04-25T07:04:09;18.30;45.50
18085;DHT22;9169;44.492;11.372;2023-04-25T07:06:44;18.30;45.70
18085;DHT22;9169;44.492;11.372;2023-04-25T07:09:17;18.30;45.70
18085;DHT22;9169;44.492;11.372;2023-04-25T07:11:47;18.30;45.90
18085;DHT22;9169;44.492;11.372;2023-04-25T07:14:17;18.30;46.00
18085;DHT22;9169;44.492;11.372;2023-04-25T07:16:47;18.30;46.10
18085;DHT22;9169;44.492;11.372;2023-04-25T07:19:16;18.30;46.40
18085;DHT22;9169;44.492;11.372;2023-04-25T07:21:45;18.40;47.10
18085;DHT22;9169;44.492;11.372;2023-04-25T07:24:14;18.40;46.80
18085;DHT22;9169;44.492;11.372;2023-04-25T07:26:46;18.40;46.90
18085;DHT22;9169;44.492;11.372;2023-04-25T07:29:22;18.30;47.10
18085;DHT22;9169;44.492;11.372;2023-04-25T07:31:52;18.20;47.20
18085;DHT22;9169;44.492;11.372;2023-04-25T07:34:21;18.10;47.30
18085;DHT22;9169;44.492;11.372;2023-04-25T07:36:50;18.10;47.40
18085;DHT22;9169;44.492;11.372;2023-04-25T07:39:21;18.00;47.40
18085;DHT22;9169;44.492;11.372;2023-04-25T07:41:53;18.00;47.50
18085;DHT22;9169;44.492;11.372;2023-04-25T07:44:27;17.90;47.80
18085;DHT22;9169;44.492;11.372;2023-04-25T07:46:59;17.90;47.80
18085;DHT22;9169;44.492;11.372;2023-04-25T07:49:30;17.90;48.10
18085;DHT22;9169;44.492;11.372;2023-04-25T07:51:59;17.90;48.20
18085;DHT22;9169;44.492;11.372;2023-04-25T07:54:28;17.90;48.40
18085;DHT22;9169;44.492;11.372;2023-04-25T07:57:03;17.90;48.30
18085;DHT22;9169;44.492;11.372;2023-04-25T07:59:34;17.90;48.40
18085;DHT22;9169;44.492;11.372;2023-04-25T08:02:05;17.90;48.70
18085;DHT22;9169;44.492;11.372;2023-04-25T08:04:34;17.80;48.50
18085;DHT22;9169;44.492;11.372;2023-04-25T08:07:05;17.80;48.60
18085;DHT22;9169;44.492;11.372;2023-04-25T08:09:44;17.80;48.90
18085;DHT22;9169;44.492;11.372;2023-04-25T08:12:22;17.80;49.10
18085;DHT22;9169;44.492;11.372;2023-04-25T08:14:51;17.80;49.20
18085;DHT22;9169;44.492;11.372;2023-04-25T08:17:23;17.80;49.20
18085;DHT22;9169;44.492;11.372;2023-04-25T08:19:52;17.80;49.10
18085;DHT22;9169;44.492;11.372;2023-04-25T08:22:29;17.80;49.30
18085;DHT22;9169;44.492;11.372;2023-04-25T08:25:25;17.90;49.80
18085;DHT22;9169;44.492;11.372;2023-04-25T08:27:55;18.00;49.80
18085;DHT22;9169;44.492;11.372;2023-04-25T08:30:25;18.10;50.10
18085;DHT22;9169;44.492;11.372;2023-04-25T08:32:55;18.20;50.00
18085;DHT22;9169;44.492;11.372;2023-04-25T08:35:45;18.40;50.10
18085;DHT22;9169;44.492;11.372;2023-04-25T08:38:15;18.50;49.90
18085;DHT22;9169;44.492;11.372;2023-04-25T08:40:44;18.50;49.90
18085;DHT22;9169;44.492;11.372;2023-04-25T08:43:19;18.70;49.70
18085;DHT22;9169;44.492;11.372;2023-04-25T08:45:48;18.60;49.50
18085;DHT22;9169;44.492;11.372;2023-04-25T08:48:32;18.60;49.50
18085;DHT22;9169;44.492;11.372;2023-04-25T08:51:07;18.50;49.30
18085;DHT22;9169;44.492;11.372;2023-04-25T08:53:41;18.50;49.30
18085;DHT22;9169;44.492;11.372;2023-04-25T08:56:16;18.50;49.20
18085;DHT22;9169;44.492;11.372;2023-04-25T08:58:48;18.50;49.50
18085;DHT22;9169;44.492;11.372;2023-04-25T09:01:18;18.40;49.50
18085;DHT22;9169;44.492;11.372;2023-04-25T09:03:54;18.30;49.40
18085;DHT22;9169;44.492;11.372;2023-04-25T09:06:23;18.30;49.20
18085;DHT22;9169;44.492;11.372;2023-04-25T09:09:02;18.20;49.20
18085;DHT22;9169;44.492;11.372;2023-04-25T09:11:33;18.20;49.40
18085;DHT22;9169;44.492;11.372;2023-04-25T09:14:11;18.20;49.40
18085;DHT22;9169;44.492;11.372;2023-04-25T09:17:01;18.20;49.30
18085;DHT22;9169;44.492;11.372;2023-04-25T09:19:53;18.20;49.10
18085;DHT22;9169;44.492;11.372;2023-04-25T09:22:26;18.20;48.80
18085;DHT22;9169;44.492;11.372;2023-04-25T09:24:55;18.20;48.60
18085;DHT22;9169;44.492;11.372;2023-04-25T09:27:28;18.20;48.20
18085;DHT22;9169;44.492;11.372;2023-04-25T09:30:13;18.10;47.80
18085;DHT22;9169;44.492;11.372;2023-04-25T09:33:04;18.10;47.60
18085;DHT22;9169;44.492;11.372;2023-04-25T09:35:37;18.10;47.50
18085;DHT22;9169;44.492;11.372;2023-04-25T09:38:10;18.10;47.40
18085;DHT22;9169;44.492;11.372;2023-04-25T09:40:58;18.10;47.30
18085;DHT22;9169;44.492;11.372;2023-04-25T09:43:49;18.10;46.90
18085;DHT22;9169;44.492;11.372;2023-04-25T09:46:18;18.10;46.70
18085;DHT22;9169;44.492;11.372;2023-04-25T09:48:52;18.10;46.60
18085;DHT22;9169;44.492;11.372;2023-04-25T09:51:33;18.10;46.40
18085;DHT22;9169;44.492;11.372;2023-04-25T09:54:05;18.20;46.20
18085;DHT22;9169;44.492;11.372;2023-04-25T09:56:38;18.20;45.90
18085;DHT22;9169;44.492;11.372;2023-04-25T09:59:09;18.10;45.60
18085;DHT22;9169;44.492;11.372;2023-04-25T10:01:40;18.10;45.40
18085;DHT22;9169;44.492;11.372;2023-04-25T10:04:22;18.10;45.40
18085;DHT22;9169;44.492;11.372;2023-04-25T10:07:03;18.10;45.30
18085;DHT22;9169;44.492;11.372;2023-04-25T10:09:36;18.10;45.10
18085;DHT22;9169;44.492;11.372;2023-04-25T10:12:07;18.20;45.10
18085;DHT22;9169;44.492;11.372;2023-04-25T10:14:36;18.30;45.20
18085;DHT22;9169;44.492;11.372;2023-04-25T10:17:04;18.30;45.10
18085;DHT22;9169;44.492;11.372;2023-04-25T10:19:34;18.40;45.10
18085;DHT22;9169;44.492;11.372;2023-04-25T10:22:13;18.50;44.90
18085;DHT22;9169;44.492;11.372;2023-04-25T10:24:44;18.60;44.80
18085;DHT22;9169;44.492;11.372;2023-04-25T10:27:15;18.70;44.60
18085;DHT22;9169;44.492;11.372;2023-04-25T10:29:44;18.80;44.50
18085;DHT22;9169;44.492;11.372;2023-04-25T10:32:12;18.90;44.40
18085;DHT22;9169;44.492;11.372;2023-04-25T10:34:43;18.90;44.40
18085;DHT22;9169;44.492;11.372;2023-04-25T10:37:15;19.10;44.40
18085;DHT22;9169;44.492;11.372;2023-04-25T10:39:44;19.20;44.30
18085;DHT22;9169;44.492;11.372;2023-04-25T10:42:14;19.40;44.40
18085;DHT22;9169;44.492;11.372;2023-04-25T10:45:01;19.60;44.40
18085;DHT22;9169;44.492;11.372;2023-04-25T10:47:35;19.70;44.20
18085;DHT22;9169;44.492;11.372;2023-04-25T10:50:08;19.80;44.10
18085;DHT22;9169;44.492;11.372;2023-04-25T10:52:40;19.90;44.10
18085;DHT22;9169;44.492;11.372;2023-04-25T10:55:08;20.00;44.00
18085;DHT22;9169;44.492;11.372;2023-04-25T10:57:39;20.20;44.10
18085;DHT22;9169;44.492;11.372;2023-04-25T11:00:11;20.40;44.20
18085;DHT22;9169;44.492;11.372;2023-04-25T11:02:42;20.50;44.10
18085;DHT22;9169;44.492;11.372;2023-04-25T11:05:20;20.60;43.90
18085;DHT22;9169;44.492;11.372;2023-04-25T11:07:53;20.70;43.70
18085;DHT22;9169;44.492;11.372;2023-04-25T11:10:32;20.80;43.70
18085;DHT22;9169;44.492;11.372;2023-04-25T11:13:04;20.80;43.60
18085;DHT22;9169;44.492;11.372;2023-04-25T11:15:33;20.80;43.50
18085;DHT22;9169;44.492;11.372;2023-04-25T11:18:02;20.80;43.50
18085;DHT22;9169;44.492;11.372;2023-04-25T11:20:31;20.90;43.50
18085;DHT22;9169;44.492;11.372;2023-04-25T11:23:01;20.90;43.30
18085;DHT22;9169;44.492;11.372;2023-04-25T11:25:35;20.90;43.10
18085;DHT22;9169;44.492;11.372;2023-04-25T11:28:04;21.00;43.20
18085;DHT22;9169;44.492;11.372;2023-04-25T11:30:33;21.10;43.30
18085;DHT22;9169;44.492;11.372;2023-04-25T11:33:02;21.20;43.40
18085;DHT22;9169;44.492;11.372;2023-04-25T11:35:31;21.20;43.20
18085;DHT22;9169;44.492;11.372;2023-04-25T11:38:02;21.20;43.00
18085;DHT22;9169;44.492;11.372;2023-04-25T11:40:32;21.20;42.80
18085;DHT22;9169;44.492;11.372;2023-04-25T11:43:01;21.20;42.70
18085;DHT22;9169;44.492;11.372;2023-04-25T11:45:30;21.30;42.80
18085;DHT22;9169;44.492;11.372;2023-04-25T11:47:59;21.50;42.60
18085;DHT22;9169;44.492;11.372;2023-04-25T11:50:29;21.70;42.20
18085;DHT22;9169;44.492;11.372;2023-04-25T11:52:58;22.00;41.80
18085;DHT22;9169;44.492;11.372;2023-04-25T11:55:30;22.10;41.50
18085;DHT22;9169;44.492;11.372;2023-04-25T11:58:00;22.00;41.00
18085;DHT22;9169;44.492;11.372;2023-04-25T12:00:29;21.90;40.90
18085;DHT22;9169;44.492;11.372;2023-04-25T12:02:58;21.90;40.70
18085;DHT22;9169;44.492;11.372;2023-04-25T12:05:29;21.80;40.50
18085;DHT22;9169;44.492;11.372;2023-04-25T12:08:10;21.80;40.40
18085;DHT22;9169;44.492;11.372;2023-04-25T12:10:43;21.80;40.40
18085;DHT22;9169;44.492;11.372;2023-04-25T12:13:21;21.80;40.70
18085;DHT22;9169;44.492;11.372;2023-04-25T12:15:50;21.80;40.80
18085;DHT22;9169;44.492;11.372;2023-04-25T12:18:19;21.90;40.90
18085;DHT22;9169;44.492;11.372;2023-04-25T12:20:49;22.00;40.70
18085;DHT22;9169;44.492;11.372;2023-04-25T12:23:25;22.10;40.70
18085;DHT22;9169;44.492;11.372;2023-04-25T12:25:56;22.20;40.70
18085;DHT22;9169;44.492;11.372;2023-04-25T12:28:25;22.40;40.60
18085;DHT22;9169;44.492;11.372;2023-04-25T12:30:56;22.70;40.90
18085;DHT22;9169;44.492;11.372;2023-04-25T12:33:26;23.20;41.10
18085;DHT22;9169;44.492;11.372;2023-04-25T12:35:56;23.70;40.40
18085;DHT22;9169;44.492;11.372;2023-04-25T12:38:26;24.00;40.40
18085;DHT22;9169;44.492;11.372;2023-04-25T12:40:57;24.50;40.50
18085;DHT22;9169;44.492;11.372;2023-04-25T12:43:26;24.80;40.00
18085;DHT22;9169;44.492;11.372;2023-04-25T12:45:55;25.00;39.60
18085;DHT22;9169;44.492;11.372;2023-04-25T12:48:24;25.00;39.00
18085;DHT22;9169;44.492;11.372;2023-04-25T12:50:53;24.90;38.90
18085;DHT22;9169;44.492;11.372;2023-04-25T12:53:22;24.80;38.50
18085;DHT22;9169;44.492;11.372;2023-04-25T12:55:51;24.60;38.10
18085;DHT22;9169;44.492;11.372;2023-04-25T12:58:21;24.20;38.00
18085;DHT22;9169;44.492;11.372;2023-04-25T13:00:50;24.00;38.00
18085;DHT22;9169;44.492;11.372;2023-04-25T13:03:19;23.70;38.10
18085;DHT22;9169;44.492;11.372;2023-04-25T13:05:49;23.60;38.40
18085;DHT22;9169;44.492;11.372;2023-04-25T13:08:19;23.60;38.50
18085;DHT22;9169;44.492;11.372;2023-04-25T13:10:48;23.60;38.70
18085;DHT22;9169;44.492;11.372;2023-04-25T13:13:18;23.90;38.90
18085;DHT22;9169;44.492;11.372;2023-04-25T13:15:49;24.00;38.10
18085;DHT22;9169;44.492;11.372;2023-04-25T13:18:19;23.90;37.80
18085;DHT22;9169;44.492;11.372;2023-04-25T13:20:48;23.60;37.60
18085;DHT22;9169;44.492;11.372;2023-04-25T13:23:22;23.40;37.80
18085;DHT22;9169;44.492;11.372;2023-04-25T13:25:51;23.20;38.00
18085;DHT22;9169;44.492;11.372;2023-04-25T13:28:21;23.10;37.80
18085;DHT22;9169;44.492;11.372;2023-04-25T13:30:51;23.00;37.90
18085;DHT22;9169;44.492;11.372;2023-04-25T13:33:20;22.90;38.20
18085;DHT22;9169;44.492;11.372;2023-04-25T13:35:49;22.70;38.20
18085;DHT22;9169;44.492;11.372;2023-04-25T13:38:21;22.60;38.60
18085;DHT22;9169;44.492;11.372;2023-04-25T13:40:50;22.50;38.80
18085;DHT22;9169;44.492;11.372;2023-04-25T13:43:23;22.50;39.10
18085;DHT22;9169;44.492;11.372;2023-04-25T13:45:53;22.50;39.10
18085;DHT22;9169;44.492;11.372;2023-04-25T13:48:23;22.60;39.10
18085;DHT22;9169;44.492;11.372;2023-04-25T13:50:52;22.60;39.10
18085;DHT22;9169;44.492;11.372;2023-04-25T13:53:21;22.70;39.40
18085;DHT22;9169;44.492;11.372;2023-04-25T13:55:50;22.90;39.50
18085;DHT22;9169;44.492;11.372;2023-04-25T13:58:19;23.10;39.30
18085;DHT22;9169;44.492;11.372;2023-04-25T14:00:48;23.20;39.00
18085;DHT22;9169;44.492;11.372;2023-04-25T14:03:18;23.30;39.10
18085;DHT22;9169;44.492;11.372;2023-04-25T14:05:47;23.50;39.20
18085;DHT22;9169;44.492;11.372;2023-04-25T14:08:16;23.70;39.10
18085;DHT22;9169;44.492;11.372;2023-04-25T14:10:45;23.70;38.50
18085;DHT22;9169;44.492;11.372;2023-04-25T14:13:13;23.60;38.50
18085;DHT22;9169;44.492;11.372;2023-04-25T14:15:45;23.70;38.60
18085;DHT22;9169;44.492;11.372;2023-04-25T14:18:14;23.70;38.70
18085;DHT22;9169;44.492;11.372;2023-04-25T14:20:44;23.80;38.60
18085;DHT22;9169;44.492;11.372;2023-04-25T14:23:12;23.80;38.30
18085;DHT22;9169;44.492;11.372;2023-04-25T14:25:41;23.80;38.10
18085;DHT22;9169;44.492;11.372;2023-04-25T14:28:10;23.70;37.80
18085;DHT22;9169;44.492;11.372;2023-04-25T14:30:39;23.50;37.70
18085;DHT22;9169;44.492;11.372;2023-04-25T14:33:07;23.10;37.40
18085;DHT22;9169;44.492;11.372;2023-04-25T14:35:36;22.90;37.60
18085;DHT22;9169;44.492;11.372;2023-04-25T14:38:06;22.60;37.60
18085;DHT22;9169;44.492;11.372;2023-04-25T14:40:35;22.40;37.50
18085;DHT22;9169;44.492;11.372;2023-04-25T14:43:04;22.20;37.70
18085;DHT22;9169;44.492;11.372;2023-04-25T14:45:33;22.00;37.80
18085;DHT22;9169;44.492;11.372;2023-04-25T14:48:03;21.80;37.90
18085;DHT22;9169;44.492;11.372;2023-04-25T14:50:32;21.80;38.20
18085;DHT22;9169;44.492;11.372;2023-04-25T14:53:01;21.70;38.10
18085;DHT22;9169;44.492;11.372;2023-04-25T14:55:31;21.60;38.10
18085;DHT22;9169;44.492;11.372;2023-04-25T14:58:00;21.60;38.20
18085;DHT22;9169;44.492;11.372;2023-04-25T15:00:29;21.50;38.20
18085;DHT22;9169;44.492;11.372;2023-04-25T15:02:59;21.50;38.20
18085;DHT22;9169;44.492;11.372;2023-04-25T15:05:28;21.50;38.20
18085;DHT22;9169;44.492;11.372;2023-04-25T15:07:57;21.60;38.40
18085;DHT22;9169;44.492;11.372;2023-04-25T15:10:25;21.60;38.30
18085;DHT22;9169;44.492;11.372;2023-04-25T15:12:55;21.60;38.40
18085;DHT22;9169;44.492;11.372;2023-04-25T15:15:24;21.60;38.40
18085;DHT22;9169;44.492;11.372;2023-04-25T15:17:55;21.60;38.50
18085;DHT22;9169;44.492;11.372;2023-04-25T15:20:25;21.60;38.60
18085;DHT22;9169;44.492;11.372;2023-04-25T15:22:54;21.70;38.70
18085;DHT22;9169;44.492;11.372;2023-04-25T15:25:23;21.70;38.60
18085;DHT22;9169;44.492;11.372;2023-04-25T15:27:52;21.70;38.70
18085;DHT22;9169;44.492;11.372;2023-04-25T15:30:23;21.70;38.80
18085;DHT22;9169;44.492;11.372;2023-04-25T15:32:52;21.60;38.80
18085;DHT22;9169;44.492;11.372;2023-04-25T15:35:21;21.60;38.80
18085;DHT22;9169;44.492;11.372;2023-04-25T15:37:49;21.50;38.90
18085;DHT22;9169;44.492;11.372;2023-04-25T15:40:18;21.50;39.10
18085;DHT22;9169;44.492;11.372;2023-04-25T15:42:48;21.40;39.20
18085;DHT22;9169;44.492;11.372;2023-04-25T15:45:19;21.40;39.40
18085;DHT22;9169;44.492;11.372;2023-04-25T15:47:50;21.40;39.40
18085;DHT22;9169;44.492;11.372;2023-04-25T15:50:19;21.40;39.50
18085;DHT22;9169;44.492;11.372;2023-04-25T15:52:49;21.30;39.50
18085;DHT22;9169;44.492;11.372;2023-04-25T15:55:18;21.30;39.60
18085;DHT22;9169;44.492;11.372;2023-04-25T15:57:48;21.40;39.80
18085;DHT22;9169;44.492;11.372;2023-04-25T16:00:18;21.40;39.90
18085;DHT22;9169;44.492;11.372;2023-04-25T16:02:50;21.50;40.00